createdAt,value
2018-04-02T00:01:02.094Z,13.47
2018-04-02T00:03:30.280Z,14.33
2018-04-02T00:05:58.512Z,14.53
2018-04-02T00:08:26.737Z,13.87
2018-04-02T00:10:55.718Z,13.53
2018-04-02T00:13:23.935Z,14.03
2018-04-02T00:15:52.189Z,13.93
2018-04-02T00:18:21.151Z,14.53
2018-04-02T00:20:49.416Z,14.50
2018-04-02T00:23:17.658Z,13.93
2018-04-02T00:25:53.943Z,14.03
2018-04-02T00:28:22.118Z,13.83
2018-04-02T00:30:50.370Z,14.40
2018-04-02T00:33:18.550Z,13.60
2018-04-02T00:35:56.996Z,14.10
2018-04-02T00:38:25.208Z,14.50
2018-04-02T00:40:54.209Z,14.47
2018-04-02T00:43:22.463Z,13.93
2018-04-02T00:45:50.731Z,14.63
2018-04-02T00:48:18.955Z,14.60
2018-04-02T00:50:47.198Z,14.70
2018-04-02T00:53:16.163Z,14.47
2018-04-02T00:55:44.527Z,15.00
2018-04-02T00:58:12.797Z,14.60
2018-04-02T01:00:43.824Z,15.50
2018-04-02T01:03:12.049Z,15.57
2018-04-02T01:06:05.981Z,14.73
2018-04-02T01:08:34.405Z,16.33
2018-04-02T01:11:03.518Z,15.97
2018-04-02T01:13:32.608Z,14.90
2018-04-02T01:16:01.605Z,15.27
2018-04-02T01:18:31.369Z,15.47
2018-04-02T01:20:59.593Z,15.77
2018-04-02T01:23:27.848Z,16.17
2018-04-02T01:25:56.095Z,16.10
2018-04-02T01:28:24.403Z,16.07
2018-04-02T01:30:52.672Z,17.87
2018-04-02T01:33:20.950Z,17.00
2018-04-02T01:35:51.030Z,19.50
2018-04-02T01:38:20.034Z,18.70
2018-04-02T01:40:48.309Z,18.03
2018-04-02T01:43:16.587Z,17.97
2018-04-02T01:45:45.775Z,18.30
2018-04-02T01:48:14.072Z,18.80
2018-04-02T01:50:42.351Z,18.30
2018-04-02T01:53:10.637Z,18.93
2018-04-02T01:55:38.902Z,18.43
2018-04-02T01:58:07.188Z,17.63
2018-04-02T02:00:35.423Z,19.40
2018-04-02T02:03:03.642Z,18.30
2018-04-02T02:05:31.912Z,17.53
2018-04-02T02:08:00.201Z,17.87
2018-04-02T02:10:28.588Z,16.90
2018-04-02T02:12:57.562Z,19.27
2018-04-02T02:15:33.082Z,18.43
2018-04-02T02:18:01.391Z,19.30
2018-04-02T02:20:30.392Z,18.00
2018-04-02T02:22:59.048Z,18.07
2018-04-02T02:25:27.314Z,19.73
2018-04-02T02:27:55.596Z,20.27
2018-04-02T02:30:23.866Z,19.60
2018-04-02T02:32:52.153Z,19.47
2018-04-02T02:35:21.326Z,19.93
2018-04-02T02:37:49.609Z,21.40
2018-04-02T02:40:17.844Z,20.90
2018-04-02T02:42:46.080Z,19.17
2018-04-02T02:45:14.400Z,19.57
2018-04-02T02:47:42.660Z,19.80
2018-04-02T02:50:10.909Z,21.47
2018-04-02T02:52:39.206Z,20.30
2018-04-02T02:55:07.491Z,19.70
2018-04-02T02:57:36.505Z,21.77
2018-04-02T03:00:04.734Z,21.73
2018-04-02T03:02:33.060Z,21.77
2018-04-02T03:05:01.290Z,20.93
2018-04-02T03:07:29.590Z,22.70
2018-04-02T03:09:57.836Z,21.53
2018-04-02T03:12:26.086Z,24.07
2018-04-02T03:15:11.062Z,21.70
2018-04-02T03:17:39.326Z,22.03
2018-04-02T03:20:07.573Z,20.80
2018-04-02T03:22:35.829Z,22.33
2018-04-02T03:25:06.103Z,22.70
2018-04-02T03:27:34.332Z,22.63
2018-04-02T03:30:02.647Z,23.63
2018-04-02T03:32:31.238Z,23.43
2018-04-02T03:35:00.446Z,24.33
2018-04-02T03:37:28.720Z,24.10
2018-04-02T03:39:56.923Z,26.03
2018-04-02T03:42:25.948Z,24.33
2018-04-02T03:44:58.079Z,22.93
2018-04-02T03:47:27.120Z,23.43
2018-04-02T03:49:55.406Z,24.23
2018-04-02T03:52:23.701Z,25.20
2018-04-02T03:54:52.173Z,24.77
2018-04-02T03:57:20.432Z,24.80
2018-04-02T03:59:48.686Z,23.90
2018-04-02T04:02:17.419Z,24.17
2018-04-02T04:04:46.656Z,23.73
2018-04-02T04:07:14.958Z,22.40
2018-04-02T04:09:44.368Z,24.07
2018-04-02T04:12:12.690Z,24.10
2018-04-02T04:14:44.963Z,23.93
2018-04-02T04:17:13.188Z,23.47
2018-04-02T04:19:41.529Z,24.53
2018-04-02T04:22:09.823Z,23.07
2018-04-02T04:24:43.159Z,23.83
2018-04-02T04:27:11.471Z,24.27
2018-04-02T04:29:41.448Z,25.50
2018-04-02T04:32:09.739Z,22.27
2018-04-02T04:35:05.763Z,25.33
2018-04-02T04:37:34.967Z,25.00
2018-04-02T04:40:03.996Z,26.57
2018-04-02T04:42:32.268Z,25.70
2018-04-02T04:45:05.229Z,23.97
2018-04-02T04:47:34.305Z,27.50
2018-04-02T04:50:03.440Z,25.30
2018-04-02T04:52:32.447Z,26.47
2018-04-02T04:55:01.394Z,26.13
2018-04-02T04:57:29.606Z,25.57
2018-04-02T04:59:57.984Z,25.67
2018-04-02T05:02:27.038Z,25.43
2018-04-02T05:05:16.931Z,27.33
2018-04-02T05:07:54.101Z,27.23
2018-04-02T05:10:23.796Z,27.10
2018-04-02T05:12:52.051Z,25.97
2018-04-02T05:15:20.265Z,25.43
2018-04-02T05:17:48.515Z,25.77
2018-04-02T05:20:17.146Z,23.83
2018-04-02T05:22:46.927Z,26.00
2018-04-02T05:25:50.064Z,23.97
2018-04-02T05:28:18.307Z,24.03
2018-04-02T05:30:46.638Z,25.97
2018-04-02T05:33:14.900Z,24.97
2018-04-02T05:35:43.220Z,26.20
2018-04-02T05:38:11.450Z,25.03
2018-04-02T05:40:40.486Z,24.83
2018-04-02T05:43:09.838Z,26.47
2018-04-02T05:45:38.104Z,25.23
2018-04-02T05:48:06.936Z,26.77
2018-04-02T05:50:35.237Z,26.17
2018-04-02T05:53:03.924Z,25.77
2018-04-02T05:55:35.922Z,26.40
2018-04-02T05:58:05.319Z,24.60
2018-04-02T06:00:33.711Z,26.53
2018-04-02T06:05:44.549Z,26.30
2018-04-02T06:08:12.820Z,25.53
2018-04-02T06:10:41.611Z,26.93
2018-04-02T06:13:09.856Z,28.37
2018-04-02T06:15:42.387Z,24.07
2018-04-02T06:18:11.935Z,22.50
2018-04-02T06:20:41.562Z,24.80
2018-04-02T06:23:18.718Z,22.47
2018-04-02T06:26:14.892Z,22.57
2018-04-02T06:29:09.993Z,21.73
2018-04-02T06:35:13.593Z,22.47
2018-04-02T06:37:42.646Z,24.33
2018-04-02T06:40:11.713Z,23.90
2018-04-02T06:42:48.490Z,24.00
2018-04-02T06:45:19.611Z,22.23
2018-04-02T07:01:18.153Z,22.27
2018-04-02T07:07:34.284Z,20.57
2018-04-02T07:10:10.416Z,21.60
2018-04-02T07:16:32.050Z,21.43
2018-04-02T07:19:26.927Z,21.93
2018-04-02T07:22:19.901Z,22.20
2018-04-02T07:28:32.029Z,21.60
2018-04-02T07:31:07.586Z,21.27
2018-04-02T07:33:43.724Z,19.63
2018-04-02T07:36:11.962Z,20.03
2018-04-02T07:38:47.748Z,20.97
2018-04-02T07:41:16.020Z,20.97
2018-04-02T07:43:44.328Z,20.03
2018-04-02T07:46:14.023Z,28.70
2018-04-02T07:48:42.243Z,21.27
2018-04-02T07:51:10.462Z,21.27
2018-04-02T07:53:38.679Z,19.57
2018-04-02T07:56:06.896Z,20.97
2018-04-02T07:58:35.104Z,19.87
2018-04-02T08:01:03.363Z,20.20
2018-04-02T08:03:31.564Z,19.43
2018-04-02T08:06:00.539Z,16.97
2018-04-02T08:08:28.777Z,20.57
2018-04-02T08:10:57.048Z,19.10
2018-04-02T08:13:25.313Z,20.13
2018-04-02T08:15:53.583Z,19.03
2018-04-02T08:18:21.798Z,18.80
2018-04-02T08:20:49.985Z,19.10
2018-04-02T08:23:18.166Z,16.67
2018-04-02T08:25:46.453Z,19.50
2018-04-02T08:28:15.471Z,17.70
2018-04-02T08:30:44.464Z,18.20
2018-04-02T08:33:12.622Z,17.13
2018-04-02T08:35:42.489Z,17.17
2018-04-02T08:38:10.652Z,16.23
2018-04-02T08:40:38.813Z,16.53
2018-04-02T08:43:06.976Z,15.60
2018-04-02T08:45:36.090Z,12.93
2018-04-02T08:48:04.249Z,14.20
2018-04-02T08:50:32.423Z,16.07
2018-04-02T08:53:00.615Z,15.23
2018-04-02T08:55:29.710Z,14.03
2018-04-02T08:57:57.890Z,15.03
2018-04-02T09:00:26.121Z,14.93
2018-04-02T09:02:55.106Z,15.23
2018-04-02T09:05:25.061Z,12.90
2018-04-02T09:07:53.278Z,13.50
2018-04-02T09:10:21.503Z,12.00
2018-04-02T09:12:49.738Z,14.07
2018-04-02T09:15:18.679Z,13.90
2018-04-02T09:17:46.869Z,11.00
2018-04-02T09:20:22.998Z,10.87
2018-04-02T09:22:51.194Z,11.47
2018-04-02T09:25:26.656Z,12.47
2018-04-02T09:28:10.235Z,11.03
2018-04-02T09:30:38.478Z,10.47
2018-04-02T09:33:06.633Z,10.63
2018-04-02T09:35:35.390Z,6.93
2018-04-02T09:38:03.572Z,9.53
2018-04-02T09:40:32.629Z,10.97
2018-04-02T09:43:00.857Z,11.73
2018-04-02T09:48:14.825Z,8.97
2018-04-02T09:50:43.058Z,7.43
2018-04-02T09:53:11.506Z,8.60
2018-04-02T09:55:40.709Z,8.87
2018-04-02T09:58:09.730Z,9.87
2018-04-02T10:00:37.960Z,8.50
2018-04-02T10:03:07.150Z,10.47
2018-04-02T10:05:36.843Z,10.03
2018-04-02T10:08:08.066Z,9.60
2018-04-02T10:10:36.336Z,9.50
2018-04-02T10:13:05.275Z,9.97
2018-04-02T10:15:33.511Z,9.03
2018-04-02T10:18:02.526Z,9.47
2018-04-02T10:20:30.712Z,9.00
2018-04-02T10:23:08.163Z,7.70
2018-04-02T10:25:38.131Z,8.40
2018-04-02T10:28:06.402Z,7.97
2018-04-02T10:30:34.550Z,8.00
2018-04-02T10:33:11.741Z,7.60
2018-04-02T10:36:08.487Z,7.87
2018-04-02T10:38:36.715Z,7.90
2018-04-02T10:41:04.895Z,7.27
2018-04-02T10:43:37.604Z,8.20
2018-04-02T10:46:05.751Z,9.47
2018-04-02T10:48:34.017Z,7.70
2018-04-02T10:51:02.156Z,7.97
2018-04-02T10:53:30.318Z,8.07
2018-04-02T10:55:59.000Z,7.37
2018-04-02T10:58:27.278Z,7.03
2018-04-02T11:00:55.527Z,7.20
2018-04-02T11:03:23.802Z,7.13
2018-04-02T11:05:51.986Z,7.23
2018-04-02T11:08:20.263Z,6.10
2018-04-02T11:10:48.453Z,5.73
2018-04-02T11:13:16.695Z,6.63
2018-04-02T11:15:47.889Z,6.70
2018-04-02T11:18:16.178Z,7.10
2018-04-02T11:20:45.165Z,6.93
2018-04-02T11:23:14.679Z,5.70
2018-04-02T11:25:45.660Z,6.30
2018-04-02T11:28:13.846Z,6.23
2018-04-02T11:30:42.066Z,5.83
2018-04-02T11:33:11.032Z,6.40
2018-04-02T11:35:40.177Z,6.87
2018-04-02T11:38:08.364Z,6.10
2018-04-02T11:40:36.546Z,6.43
2018-04-02T11:43:04.733Z,6.30
2018-04-02T11:45:32.989Z,5.57
2018-04-02T11:48:01.235Z,6.27
2018-04-02T11:50:29.545Z,6.30
2018-04-02T11:52:57.724Z,5.37
2018-04-02T11:55:28.942Z,6.93
2018-04-02T11:57:57.200Z,6.37
2018-04-02T12:00:26.142Z,5.90
2018-04-02T12:02:54.333Z,6.10
2018-04-02T12:05:22.592Z,6.80
2018-04-02T12:07:50.780Z,5.27
2018-04-02T12:10:19.005Z,6.03
2018-04-02T12:12:47.195Z,5.90
2018-04-02T12:15:16.415Z,6.00
2018-04-02T12:17:44.624Z,6.50
2018-04-02T12:20:12.909Z,6.57
2018-04-02T12:22:41.111Z,5.97
2018-04-02T12:25:14.793Z,5.73
2018-04-02T12:27:43.029Z,6.10
2018-04-02T12:30:11.293Z,6.80
2018-04-02T12:32:39.506Z,6.10
2018-04-02T12:35:09.434Z,5.50
2018-04-02T12:37:37.661Z,5.40
2018-04-02T12:40:05.877Z,6.70
2018-04-02T12:42:34.123Z,6.27
2018-04-02T12:45:02.391Z,6.17
2018-04-02T12:47:30.654Z,6.03
2018-04-02T12:49:59.830Z,6.20
2018-04-02T12:52:28.076Z,5.83
2018-04-02T12:54:57.301Z,5.73
2018-04-02T12:57:25.494Z,6.07
2018-04-02T12:59:54.603Z,5.73
2018-04-02T13:02:23.817Z,5.17
2018-04-02T13:04:51.965Z,5.70
2018-04-02T13:07:20.266Z,5.67
2018-04-02T13:09:48.443Z,5.70
2018-04-02T13:12:16.723Z,6.17
2018-04-02T13:14:45.726Z,6.07
2018-04-02T13:17:14.820Z,6.23
2018-04-02T13:19:43.751Z,5.43
2018-04-02T13:22:13.158Z,5.90
2018-04-02T13:24:41.398Z,6.10
2018-04-02T13:27:10.418Z,5.07
2018-04-02T13:29:38.769Z,5.90
2018-04-02T13:32:09.630Z,6.13
2018-04-02T13:34:39.867Z,5.60
2018-04-02T13:37:08.839Z,5.43
2018-04-02T13:39:37.029Z,5.37
2018-04-02T13:42:06.354Z,4.90
2018-04-02T13:44:38.375Z,5.60
2018-04-02T13:47:06.592Z,5.50
2018-04-02T13:49:34.826Z,4.97
2018-04-02T13:52:12.145Z,5.20
2018-04-02T13:54:41.363Z,4.53
2018-04-02T13:57:09.546Z,5.20
2018-04-02T13:59:38.887Z,4.30
2018-04-02T14:02:07.494Z,4.50
2018-04-02T14:04:36.751Z,3.80
2018-04-02T14:07:05.044Z,4.00
2018-04-02T14:09:33.267Z,3.20
2018-04-02T14:12:01.493Z,3.63
2018-04-02T14:14:29.726Z,3.20
2018-04-02T14:16:57.949Z,3.40
2018-04-02T14:19:26.953Z,3.73
2018-04-02T14:21:55.179Z,3.83
2018-04-02T14:24:24.431Z,3.10
2018-04-02T14:26:52.688Z,3.73
2018-04-02T14:29:25.224Z,2.93
2018-04-02T14:31:54.342Z,3.40
2018-04-02T14:34:22.564Z,2.83
2018-04-02T14:36:50.762Z,3.83
2018-04-02T14:39:19.027Z,2.90
2018-04-02T14:41:47.267Z,2.93
2018-04-02T14:44:15.508Z,3.60
2018-04-02T14:46:44.527Z,2.77
2018-04-02T14:49:12.724Z,2.70
2018-04-02T14:51:40.974Z,2.80
2018-04-02T14:54:09.178Z,2.73
2018-04-02T14:56:37.445Z,2.80
2018-04-02T14:59:05.671Z,2.80
2018-04-02T15:01:34.660Z,2.57
2018-04-02T15:04:04.579Z,2.80
2018-04-02T15:06:33.567Z,2.40
2018-04-02T15:09:02.537Z,2.97
2018-04-02T15:11:30.824Z,2.40
2018-04-02T15:14:00.057Z,2.83
2018-04-02T15:16:29.222Z,2.87
2018-04-02T15:18:57.458Z,3.17
2018-04-02T15:21:25.715Z,3.23
2018-04-02T15:23:53.943Z,3.13
2018-04-02T15:26:22.214Z,2.83
2018-04-02T15:28:50.474Z,2.80
2018-04-02T15:31:20.050Z,3.03
2018-04-02T15:33:48.883Z,3.03
2018-04-02T15:36:17.061Z,2.67
2018-04-02T15:38:45.331Z,2.97
2018-04-02T15:41:13.498Z,3.03
2018-04-02T15:43:42.686Z,2.90
2018-04-02T15:46:10.886Z,2.73
2018-04-02T15:48:39.172Z,2.80
2018-04-02T15:51:08.139Z,2.63
2018-04-02T15:53:36.410Z,3.20
2018-04-02T15:56:04.616Z,2.33
2018-04-02T15:58:33.671Z,2.57
2018-04-02T16:01:01.901Z,2.10
2018-04-02T16:03:30.095Z,2.43
2018-04-02T16:05:58.348Z,2.87
2018-04-02T16:08:27.400Z,2.33
2018-04-02T16:10:55.663Z,2.70
2018-04-02T16:13:32.202Z,2.30
2018-04-02T16:16:00.344Z,2.50
2018-04-02T16:18:28.704Z,2.37
2018-04-02T16:20:56.904Z,2.20
2018-04-02T16:23:26.643Z,1.90
2018-04-02T16:25:54.869Z,2.23
2018-04-02T16:28:23.050Z,1.50
2018-04-02T16:30:52.061Z,2.20
2018-04-02T16:33:20.282Z,1.80
2018-04-02T16:35:48.579Z,2.33
2018-04-02T16:38:17.450Z,1.87
2018-04-02T16:40:45.651Z,2.40
2018-04-02T16:43:21.617Z,1.80
2018-04-02T16:45:50.854Z,1.90
2018-04-02T16:48:31.989Z,2.10
2018-04-02T16:51:00.179Z,2.63
2018-04-02T16:53:28.303Z,2.03
2018-04-02T16:55:56.485Z,1.67
2018-04-02T16:58:24.741Z,1.90
2018-04-02T17:00:53.647Z,2.57
2018-04-02T17:03:30.574Z,2.83
2018-04-02T17:05:59.586Z,2.83
2018-04-02T17:08:27.798Z,3.40
2018-04-02T17:10:56.017Z,2.23
2018-04-02T17:13:25.408Z,2.80
2018-04-02T17:15:54.489Z,2.73
2018-04-02T17:18:22.694Z,3.90
2018-04-02T17:20:50.900Z,2.70
2018-04-02T17:23:19.119Z,3.30
2018-04-02T17:25:49.063Z,2.47
2018-04-02T17:28:18.513Z,2.30
2018-04-02T17:30:48.309Z,2.00
2018-04-02T17:33:16.477Z,2.63
2018-04-02T17:35:45.589Z,2.80
2018-04-02T17:38:13.757Z,2.70
2018-04-02T17:40:41.981Z,3.90
2018-04-02T17:43:11.144Z,4.10
2018-04-02T17:45:39.334Z,3.40
2018-04-02T17:48:08.311Z,3.83
2018-04-02T17:50:36.609Z,4.10
2018-04-02T17:53:05.651Z,2.97
2018-04-02T17:55:34.794Z,2.67
2018-04-02T17:58:03.009Z,3.40
2018-04-02T18:00:31.180Z,4.53
2018-04-02T18:02:59.425Z,9.07
2018-04-02T18:05:29.349Z,11.90
2018-04-02T18:07:57.620Z,18.33
2018-04-02T18:10:26.559Z,30.67
2018-04-02T18:12:54.750Z,20.10
2018-04-02T18:15:24.938Z,15.37
2018-04-02T18:17:53.245Z,31.00
2018-04-02T18:20:21.489Z,88.97
2018-04-02T18:22:49.769Z,40.77
2018-04-02T18:25:20.042Z,28.10
2018-04-02T18:27:48.264Z,19.70
2018-04-02T18:30:16.487Z,26.70
2018-04-02T18:32:44.784Z,12.63
2018-04-02T18:35:12.972Z,10.13
2018-04-02T18:37:41.245Z,10.67
2018-04-02T18:40:09.520Z,9.40
2018-04-02T18:42:37.764Z,8.03
2018-04-02T18:45:06.083Z,7.23
2018-04-02T18:47:34.291Z,13.43
2018-04-02T18:50:02.521Z,5.80
2018-04-02T18:52:30.723Z,4.73
2018-04-02T18:54:59.923Z,8.43
2018-04-02T18:57:28.164Z,7.43
2018-04-02T18:59:56.403Z,7.03
2018-04-02T19:02:24.618Z,9.87
2018-04-02T19:04:52.870Z,7.30
2018-04-02T19:07:21.870Z,6.50
2018-04-02T19:09:50.860Z,9.90
2018-04-02T19:12:19.836Z,19.23
2018-04-02T19:14:48.983Z,13.90
2018-04-02T19:17:17.194Z,10.00
2018-04-02T19:19:45.499Z,9.43
2018-04-02T19:22:14.468Z,6.33
2018-04-02T19:24:43.650Z,6.57
2018-04-02T19:27:11.856Z,5.67
2018-04-02T19:29:40.114Z,7.23
2018-04-02T19:32:08.399Z,10.23
2018-04-02T19:34:36.629Z,13.77
2018-04-02T19:37:05.831Z,7.60
2018-04-02T19:39:34.122Z,10.50
2018-04-02T19:42:02.356Z,9.03
2018-04-02T19:44:30.661Z,8.67
2018-04-02T19:46:58.996Z,5.53
2018-04-02T19:49:28.015Z,7.33
2018-04-02T19:51:56.308Z,9.87
2018-04-02T19:54:25.585Z,6.17
2018-04-02T19:56:54.815Z,9.40
2018-04-02T19:59:23.015Z,6.90
2018-04-02T20:01:51.292Z,6.90
2018-04-02T20:04:20.289Z,5.13
2018-04-02T20:06:48.529Z,5.60
2018-04-02T20:09:16.746Z,4.20
2018-04-02T20:11:45.008Z,5.37
2018-04-02T20:14:15.221Z,4.70
2018-04-02T20:16:43.456Z,4.20
2018-04-02T20:19:11.664Z,4.10
2018-04-02T20:21:40.070Z,7.07
2018-04-02T20:24:08.303Z,4.20
2018-04-02T20:26:36.587Z,4.43
2018-04-02T20:29:04.868Z,81.20
2018-04-02T20:31:33.155Z,25.00
2018-04-02T20:34:02.336Z,10.20
2018-04-02T20:36:30.628Z,15.43
2018-04-02T20:38:58.868Z,34.23
2018-04-02T20:41:27.093Z,17.37
2018-04-02T20:43:56.392Z,11.90
2018-04-02T20:46:24.628Z,11.63
2018-04-02T20:48:52.911Z,6.33
2018-04-02T20:51:21.115Z,4.70
2018-04-02T20:53:51.319Z,4.53
2018-04-02T20:56:19.547Z,3.00
2018-04-02T20:58:47.797Z,4.27
2018-04-02T21:01:16.763Z,5.47
2018-04-02T21:03:45.911Z,5.53
2018-04-02T21:06:14.139Z,4.37
2018-04-02T21:08:42.373Z,3.77
2018-04-02T21:11:10.671Z,5.83
2018-04-02T21:13:43.243Z,4.33
2018-04-02T21:16:11.475Z,4.83
2018-04-02T21:18:40.491Z,3.00
2018-04-02T21:21:08.693Z,2.30
2018-04-02T21:23:37.872Z,2.80
2018-04-02T21:26:06.108Z,5.40
2018-04-02T21:28:35.110Z,9.70
2018-04-02T21:31:03.325Z,4.70
2018-04-02T21:33:32.518Z,2.53
2018-04-02T21:36:00.798Z,2.30
2018-04-02T21:38:29.126Z,3.43
2018-04-02T21:40:58.094Z,2.10
2018-04-02T21:43:26.327Z,1.93
2018-04-02T21:45:54.519Z,2.17
2018-04-02T21:48:22.740Z,3.10
2018-04-02T21:50:51.725Z,2.00
2018-04-02T21:53:19.935Z,3.53
2018-04-02T21:55:48.172Z,3.60
2018-04-02T21:58:16.479Z,4.83
2018-04-02T22:00:44.756Z,2.30
2018-04-02T22:03:12.987Z,3.57
2018-04-02T22:05:41.193Z,3.07
2018-04-02T22:08:10.354Z,2.77
2018-04-02T22:10:38.665Z,3.40
2018-04-02T22:13:07.625Z,2.53
2018-04-02T22:15:35.896Z,1.90
2018-04-02T22:18:04.111Z,2.17
2018-04-02T22:20:33.158Z,3.43
2018-04-02T22:23:01.385Z,4.00
2018-04-02T22:25:30.639Z,3.30
2018-04-02T22:27:58.838Z,2.73
2018-04-02T22:30:27.900Z,2.40
2018-04-02T22:32:56.169Z,2.23
2018-04-02T22:35:24.419Z,2.30
2018-04-02T22:37:52.635Z,2.80
2018-04-02T22:40:20.899Z,2.47
2018-04-02T22:42:49.132Z,2.30
2018-04-02T22:45:17.372Z,2.73
2018-04-02T22:47:45.582Z,2.60
2018-04-02T22:50:13.819Z,2.40
2018-04-02T22:52:42.080Z,8.27
2018-04-02T22:55:11.210Z,3.03
2018-04-02T22:57:40.268Z,3.70
2018-04-02T23:00:08.497Z,2.20
2018-04-02T23:02:36.774Z,1.80
2018-04-02T23:05:04.932Z,1.40
2018-04-02T23:07:33.989Z,2.07
2018-04-02T23:10:02.919Z,1.43
2018-04-02T23:12:31.127Z,1.80
2018-04-02T23:15:00.358Z,1.63
2018-04-02T23:17:28.577Z,1.57
2018-04-02T23:19:56.832Z,1.50
2018-04-02T23:22:57.306Z,1.90
2018-04-02T23:25:26.537Z,1.63
2018-04-02T23:27:54.750Z,2.93
2018-04-02T23:30:23.012Z,2.77
2018-04-02T23:32:52.042Z,5.00
2018-04-02T23:35:20.232Z,4.43
2018-04-02T23:37:48.482Z,2.20
2018-04-02T23:40:16.701Z,1.80
2018-04-02T23:42:44.983Z,1.50
2018-04-02T23:45:13.203Z,2.10
2018-04-02T23:47:41.412Z,1.80
2018-04-02T23:50:09.644Z,1.90
2018-04-02T23:52:38.687Z,2.00
2018-04-02T23:55:07.846Z,5.30
2018-04-02T23:57:36.075Z,14.30
